Time;durP1;ratioP1;P1;durP2;ratioP2;P2;SDS_P1;SDS_P2;PMS_P1;PMS_P2;Temp;Humidity;BMP_temperature;BMP_pressure;BME280_temperature;BME280_humidity;BME280_pressure;Samples;Min_cycle;Max_cycle;Signal;HPM_P1;HPM_P2
2023/05/12 00:00:47;;;;;;;7.13;3.65;;;;;;;22.12;30.73;101398.22;5016418;27;96924;-74
2023/05/12 00:03:14;;;;;;;13.38;3.80;;;;;;;21.79;31.17;101391.56;5023639;27;97739;-73
2023/05/12 00:05:40;;;;;;;6.93;3.88;;;;;;;21.75;31.10;101398.16;5023174;27;98837;-74
2023/05/12 00:08:08;;;;;;;6.32;3.97;;;;;;;21.86;30.76;101398.22;5025672;27;99484;-73
2023/05/12 00:10:35;;;;;;;7.88;3.20;;;;;;;21.62;31.09;101394.63;5022976;27;96915;-74
2023/05/12 00:13:01;;;;;;;11.60;4.00;;;;;;;21.78;31.18;101397.09;5020390;27;97061;-75
2023/05/12 00:15:27;;;;;;;4.82;3.22;;;;;;;21.79;30.88;101391.56;5021387;27;99101;-75
2023/05/12 00:17:54;;;;;;;8.75;3.45;;;;;;;21.68;31.25;101391.50;5027594;27;98723;-75
2023/05/12 00:20:20;;;;;;;11.93;4.00;;;;;;;21.79;30.87;101393.44;5023916;27;97226;-74
2023/05/12 00:22:46;;;;;;;5.70;3.38;;;;;;;21.68;30.91;101394.19;5023186;27;97574;-75
2023/05/12 00:25:14;;;;;;;10.60;3.97;;;;;;;21.54;31.01;101391.63;5032969;27;99072;-75
2023/05/12 00:27:41;;;;;;;10.95;3.83;;;;;;;21.61;30.97;101395.59;5029922;27;99038;-74
2023/05/12 00:30:09;;;;;;;8.07;2.95;;;;;;;21.59;31.30;101397.56;5020539;27;96938;-75
2023/05/12 00:32:35;;;;;;;9.98;3.60;;;;;;;21.69;31.23;101392.34;5024430;27;98698;-74
2023/05/12 00:35:01;;;;;;;11.18;3.70;;;;;;;21.63;31.23;101390.97;5023635;27;99327;-75
2023/05/12 00:37:28;;;;;;;6.88;3.45;;;;;;;21.71;31.11;101391.28;5028646;27;100824;-74
2023/05/12 00:39:54;;;;;;;8.20;3.28;;;;;;;21.82;30.72;101388.69;5027540;27;97064;-73
2023/05/12 00:42:22;;;;;;;9.60;3.40;;;;;;;21.66;30.85;101393.41;5026000;27;96875;-75
2023/05/12 00:44:48;;;;;;;8.13;3.45;;;;;;;21.66;30.88;101393.41;5020708;27;98287;-75
2023/05/12 00:47:15;;;;;;;6.43;3.50;;;;;;;21.70;30.65;101400.31;5017394;27;99136;-75
2023/05/12 00:49:44;;;;;;;10.68;3.40;;;;;;;21.52;30.89;101398.94;5024080;27;98235;-75
2023/05/12 00:52:10;;;;;;;6.20;3.50;;;;;;;21.43;31.11;101396.91;5026594;27;97967;-75
2023/05/12 00:54:39;;;;;;;6.97;3.75;;;;;;;21.32;31.16;101402.19;5030063;27;100776;-75
2023/05/12 00:57:06;;;;;;;6.18;3.38;;;;;;;21.26;31.10;101410.66;5029103;27;99133;-76
2023/05/12 00:59:34;;;;;;;6.00;3.53;;;;;;;21.18;31.18;101404.97;5027008;27;97208;-75
2023/05/12 01:02:00;;;;;;;9.45;3.33;;;;;;;21.16;31.79;101398.81;5025166;27;96944;-73
2023/05/12 01:04:28;;;;;;;9.98;4.10;;;;;;;21.08;31.70;101408.25;5027235;27;99377;-74
2023/05/12 01:06:58;;;;;;;6.93;3.72;;;;;;;21.07;31.95;101405.66;5026746;27;99305;-74
2023/05/12 01:09:24;;;;;;;6.43;3.90;;;;;;;20.96;31.93;101408.22;5023011;27;97280;-75
2023/05/12 01:11:51;;;;;;;4.95;3.60;;;;;;;21.19;31.53;101409.38;5024995;27;98105;-75
2023/05/12 01:14:17;;;;;;;6.80;3.55;;;;;;;21.06;31.71;101404.81;5018557;27;99405;-75
2023/05/12 01:16:50;;;;;;;9.32;3.55;;;;;;;21.01;31.72;101409.63;5020236;27;99375;-76
2023/05/12 01:19:32;;;;;;;8.23;4.00;;;;;;;21.06;31.44;101410.19;5029256;27;96782;-75
2023/05/12 01:22:00;;;;;;;7.03;3.72;;;;;;;21.04;31.68;101412.13;5029030;27;99695;-75
2023/05/12 01:24:29;;;;;;;9.35;3.92;;;;;;;21.00;31.72;101415.97;5029551;27;99161;-75
2023/05/12 01:26:56;;;;;;;7.78;3.70;;;;;;;21.04;31.47;101412.13;5030069;27;98901;-76
2023/05/12 01:29:24;;;;;;;5.95;4.10;;;;;;;21.05;31.50;101413.84;5024476;27;96813;-74
2023/05/12 01:31:50;;;;;;;6.55;3.70;;;;;;;21.09;31.40;101422.53;5021526;27;97104;-74
2023/05/12 01:34:17;;;;;;;7.78;3.25;;;;;;;20.96;31.80;101425.22;5022307;27;98126;-75
2023/05/12 01:36:43;;;;;;;12.50;3.60;;;;;;;20.79;32.15;101420.13;5021748;27;98794;-76
2023/05/12 01:39:10;;;;;;;14.90;3.90;;;;;;;20.75;32.01;101418.59;5025906;27;96926;-75
2023/05/12 01:41:37;;;;;;;9.02;3.67;;;;;;;21.02;31.65;101419.41;5024416;27;97256;-75
2023/05/12 01:44:05;;;;;;;10.00;3.63;;;;;;;20.90;32.10;101419.38;5027661;27;99514;-75
2023/05/12 01:46:31;;;;;;;11.55;3.83;;;;;;;21.00;31.60;101421.34;5021503;27;98104;-75
2023/05/12 01:48:57;;;;;;;9.98;3.47;;;;;;;20.82;31.96;101422.59;5019771;27;96924;-76
2023/05/12 01:51:24;;;;;;;9.45;3.70;;;;;;;20.98;31.85;101422.41;5029275;27;96911;-75
2023/05/12 01:53:50;;;;;;;7.63;4.15;;;;;;;20.81;31.97;101414.63;5022751;27;98866;-74
2023/05/12 01:56:16;;;;;;;6.68;3.72;;;;;;;20.84;31.99;101423.34;5024785;27;99196;-75
2023/05/12 01:58:43;;;;;;;9.70;4.28;;;;;;;20.87;31.72;101425.81;5012760;27;96890;-75
2023/05/12 02:01:10;;;;;;;10.82;3.55;;;;;;;20.85;32.14;101422.41;5015773;27;96930;-75
2023/05/12 02:03:37;;;;;;;10.20;3.97;;;;;;;20.81;32.12;101426.22;5020028;27;99421;-75
2023/05/12 02:06:04;;;;;;;5.32;3.92;;;;;;;20.87;32.14;101424.97;5030132;27;98920;-74
2023/05/12 02:08:30;;;;;;;11.57;3.95;;;;;;;20.77;32.02;101422.03;5027664;27;96977;-75
2023/05/12 02:11:04;;;;;;;9.10;3.92;;;;;;;20.66;32.30;101428.16;5024356;27;96970;-74
2023/05/12 02:13:31;;;;;;;8.98;3.78;;;;;;;20.64;32.41;101435.44;5023471;27;98638;-75
2023/05/12 02:15:57;;;;;;;12.02;3.58;;;;;;;20.63;32.38;101428.34;5019857;27;98833;-74
2023/05/12 02:18:25;;;;;;;7.90;3.83;;;;;;;20.59;32.68;101442.06;5020189;27;97128;-75
2023/05/12 02:20:51;;;;;;;6.38;3.60;;;;;;;20.67;32.13;101445.13;5026552;27;98680;-74
2023/05/12 02:23:17;;;;;;;7.28;3.58;;;;;;;20.59;32.20;101447.44;5026354;27;98932;-75
2023/05/12 02:25:44;;;;;;;8.20;4.10;;;;;;;20.71;32.32;101441.25;5019695;27;98835;-74
2023/05/12 02:28:10;;;;;;;12.63;4.00;;;;;;;20.68;32.36;101436.06;5020022;27;96911;-75
2023/05/12 02:30:37;;;;;;;9.00;3.80;;;;;;;20.63;32.49;101451.63;5016764;27;97490;-75
2023/05/12 02:33:04;;;;;;;8.00;3.83;;;;;;;20.72;32.35;101442.97;5025402;27;99239;-74
2023/05/12 02:35:31;;;;;;;11.35;4.22;;;;;;;20.54;32.80;101450.44;5025514;27;98843;-74
2023/05/12 02:37:58;;;;;;;8.68;4.72;;;;;;;20.62;32.53;101448.09;5020996;27;97146;-74
2023/05/12 02:40:24;;;;;;;7.85;3.47;;;;;;;20.50;32.71;101453.41;5021608;27;97458;-75
2023/05/12 02:42:51;;;;;;;8.00;3.70;;;;;;;20.49;32.43;101443.63;5019131;27;97202;-75
2023/05/12 02:45:18;;;;;;;14.10;4.47;;;;;;;20.41;32.76;101451.34;5024032;27;98848;-75
2023/05/12 02:47:44;;;;;;;13.40;4.40;;;;;;;20.49;32.48;101447.19;5025183;27;98066;-75
2023/05/12 02:50:11;;;;;;;7.45;3.80;;;;;;;20.40;32.82;101446.94;5015034;27;97187;-75
2023/05/12 02:52:39;;;;;;;8.57;3.90;;;;;;;20.31;32.72;101443.00;5016989;27;102389;-76
2023/05/12 02:55:06;;;;;;;5.97;3.63;;;;;;;20.16;33.29;101446.66;5017322;27;98749;-75
2023/05/12 02:57:33;;;;;;;9.80;4.05;;;;;;;20.18;33.18;101442.91;5015363;27;99110;-75
2023/05/12 02:59:59;;;;;;;8.55;4.25;;;;;;;20.19;33.23;101449.16;5019956;27;97050;-75
2023/05/12 03:02:25;;;;;;;7.13;4.25;;;;;;;20.10;33.39;101445.22;5014419;27;99332;-75
2023/05/12 03:04:52;;;;;;;10.40;3.78;;;;;;;20.11;33.41;101441.59;5025269;27;99107;-74
2023/05/12 03:07:18;;;;;;;9.88;4.03;;;;;;;19.98;33.48;101435.28;5024864;27;96796;-75
2023/05/12 03:09:46;;;;;;;7.03;3.92;;;;;;;19.90;33.89;101445.63;5024375;27;96825;-74
2023/05/12 03:12:15;;;;;;;11.93;4.15;;;;;;;19.85;34.04;101447.75;5020668;27;99583;-74
2023/05/12 03:14:41;;;;;;;8.20;4.03;;;;;;;19.91;33.67;101447.38;5023164;27;99043;-74
2023/05/12 03:17:08;;;;;;;8.52;4.40;;;;;;;19.89;33.51;101447.44;5018616;27;97691;-74
2023/05/12 03:19:34;;;;;;;8.18;4.47;;;;;;;19.84;33.81;101446.88;5023139;27;96798;-73
2023/05/12 03:22:02;;;;;;;10.25;4.03;;;;;;;19.92;33.62;101450.91;5018906;27;99687;-74
2023/05/12 03:24:28;;;;;;;16.13;4.47;;;;;;;19.82;33.85;101450.66;5021774;27;98083;-73
2023/05/12 03:26:56;;;;;;;12.65;4.38;;;;;;;19.73;33.92;101454.75;5027554;27;96846;-74
2023/05/12 03:29:23;;;;;;;8.68;3.95;;;;;;;19.69;33.99;101449.69;5024520;27;96969;-76
2023/05/12 03:31:49;;;;;;;8.60;3.90;;;;;;;19.72;34.03;101450.34;5026861;27;98970;-75
2023/05/12 03:34:16;;;;;;;7.45;3.60;;;;;;;19.85;33.41;101453.13;5025508;27;101692;-76
2023/05/12 03:36:42;;;;;;;13.27;4.53;;;;;;;19.87;33.65;101453.88;5029616;28;96881;-76
2023/05/12 03:39:09;;;;;;;7.25;4.38;;;;;;;19.93;33.74;101456.19;5015374;27;96750;-75
2023/05/12 03:41:35;;;;;;;6.47;4.05;;;;;;;19.90;33.46;101454.53;5024126;27;99256;-75
2023/05/12 03:44:04;;;;;;;11.48;4.35;;;;;;;19.75;34.18;101462.72;5023355;27;98805;-75
2023/05/12 03:46:30;;;;;;;9.30;4.00;;;;;;;19.76;33.83;101459.03;5026593;27;96898;-76
2023/05/12 03:48:57;;;;;;;7.45;4.18;;;;;;;19.89;33.66;101460.00;5025598;27;96931;-76
2023/05/12 03:51:24;;;;;;;11.32;4.30;;;;;;;19.81;33.77;101456.97;5025471;27;98920;-76
2023/05/12 03:53:51;;;;;;;12.55;4.25;;;;;;;19.95;33.70;101464.13;5024063;27;98965;-76
2023/05/12 03:56:17;;;;;;;8.75;4.95;;;;;;;19.72;34.07;101462.88;5018264;27;96832;-74
2023/05/12 03:58:45;;;;;;;8.55;4.40;;;;;;;19.76;33.77;101467.94;5023092;27;97029;-75
2023/05/12 04:01:13;;;;;;;15.73;4.30;;;;;;;19.81;33.74;101460.50;5021472;27;99421;-74
2023/05/12 04:03:40;;;;;;;13.68;4.13;;;;;;;19.92;33.57;101467.88;5023580;27;99229;-75
2023/05/12 04:06:07;;;;;;;6.90;4.22;;;;;;;19.82;33.55;101464.06;5022911;27;96835;-75
2023/05/12 04:08:33;;;;;;;7.70;4.43;;;;;;;19.84;33.30;101468.34;5029489;27;97704;-73
2023/05/12 04:11:02;;;;;;;8.45;4.30;;;;;;;19.76;33.87;101462.59;5021109;27;102257;-74
2023/05/12 04:13:30;;;;;;;9.20;3.97;;;;;;;19.74;33.81;101467.22;5020786;27;98802;-75
2023/05/12 04:15:57;;;;;;;9.18;4.45;;;;;;;19.88;33.75;101466.34;5020385;27;96935;-76
2023/05/12 04:18:25;;;;;;;8.63;4.38;;;;;;;19.86;33.56;101473.63;5022087;27;97016;-76
2023/05/12 04:20:52;;;;;;;10.32;4.85;;;;;;;19.92;33.67;101477.72;5031011;27;98912;-76
2023/05/12 04:23:19;;;;;;;10.68;4.80;;;;;;;19.89;33.20;101478.78;5022319;27;99201;-76
2023/05/12 04:25:45;;;;;;;13.43;4.20;;;;;;;19.81;33.40;101473.06;5026493;27;96804;-75
2023/05/12 04:28:12;;;;;;;6.40;3.60;;;;;;;19.92;33.55;101478.59;5023202;27;96871;-76
2023/05/12 04:30:39;;;;;;;10.10;4.40;;;;;;;20.09;33.07;101473.00;5019934;27;97871;-75
2023/05/12 04:33:06;;;;;;;9.07;4.00;;;;;;;19.83;33.29;101480.03;5020093;27;98923;-76
2023/05/12 04:35:33;;;;;;;8.38;4.40;;;;;;;19.99;33.10;101479.94;5029008;27;96994;-76
2023/05/12 04:38:01;;;;;;;9.27;3.63;;;;;;;20.25;32.74;101478.28;5028055;27;99278;-75
2023/05/12 04:40:27;;;;;;;12.13;4.55;;;;;;;20.37;32.64;101476.66;5028947;27;101626;-75
2023/05/12 04:42:54;;;;;;;11.05;4.85;;;;;;;20.33;32.63;101478.69;5030530;27;98880;-76
2023/05/12 04:45:20;;;;;;;11.45;4.07;;;;;;;20.35;32.60;101481.28;5028257;27;96849;-75
2023/05/12 04:47:46;;;;;;;8.20;4.40;;;;;;;20.18;32.64;101485.00;5025276;27;97473;-74
2023/05/12 04:50:14;;;;;;;9.23;4.20;;;;;;;20.07;32.60;101492.88;5020678;27;99050;-75
2023/05/12 04:52:41;;;;;;;12.23;4.72;;;;;;;20.09;32.94;101491.78;5029344;27;99318;-75
2023/05/12 04:55:09;;;;;;;9.98;4.30;;;;;;;20.16;33.02;101490.44;5025614;27;96766;-75
2023/05/12 04:57:35;;;;;;;14.45;4.32;;;;;;;20.15;32.80;101487.88;5020366;27;96973;-74
2023/05/12 05:00:04;;;;;;;12.90;5.07;;;;;;;20.09;33.19;101497.16;5019229;27;99054;-74
2023/05/12 05:02:30;;;;;;;10.50;5.20;;;;;;;20.17;32.63;101494.00;5018085;27;98801;-73
2023/05/12 05:04:57;;;;;;;8.88;4.80;;;;;;;20.27;32.76;101501.38;5023338;27;98123;-75
2023/05/12 05:07:23;;;;;;;11.95;4.90;;;;;;;20.18;32.95;101506.47;5021874;27;96905;-73
2023/05/12 05:09:52;;;;;;;14.02;4.35;;;;;;;20.34;32.91;101506.38;5012206;27;102123;-75
2023/05/12 05:12:19;;;;;;;16.80;4.72;;;;;;;20.58;32.67;101512.84;5018879;27;98363;-73
2023/05/12 05:14:45;;;;;;;8.68;4.47;;;;;;;20.41;32.52;101505.03;5023756;27;96762;-73
2023/05/12 05:17:12;;;;;;;11.23;4.47;;;;;;;20.42;32.32;101512.09;5012784;27;97813;-75
2023/05/12 05:19:38;;;;;;;9.70;4.07;;;;;;;20.49;32.40;101511.59;5019708;27;98907;-75
2023/05/12 05:22:05;;;;;;;15.25;4.50;;;;;;;20.66;32.36;101511.38;5019730;27;98973;-75
2023/05/12 05:24:32;;;;;;;9.88;4.95;;;;;;;20.91;31.93;101518.69;5024800;27;96811;-75
2023/05/12 05:26:59;;;;;;;9.45;5.10;;;;;;;20.93;31.71;101522.16;5019366;27;97135;-74
2023/05/12 05:29:27;;;;;;;16.13;4.97;;;;;;;20.99;31.57;101527.09;5014279;27;98964;-75
2023/05/12 05:31:53;;;;;;;12.30;4.22;;;;;;;21.23;31.49;101515.69;5022510;27;99319;-75
2023/05/12 05:34:20;;;;;;;14.32;4.60;;;;;;;21.28;31.42;101513.53;5020249;27;97249;-75
2023/05/12 05:36:46;;;;;;;11.40;4.63;;;;;;;21.63;30.74;101522.75;5023299;27;96986;-75
2023/05/12 05:39:13;;;;;;;12.20;5.95;;;;;;;21.80;30.58;101514.34;5025766;27;99120;-76
2023/05/12 05:41:39;;;;;;;10.20;4.63;;;;;;;21.94;30.30;101521.44;5021385;27;98984;-75
2023/05/12 05:44:07;;;;;;;15.18;4.10;;;;;;;22.08;30.13;101512.44;5023433;27;96872;-75
2023/05/12 05:46:33;;;;;;;11.05;4.60;;;;;;;22.27;29.78;101529.84;5020831;27;96962;-77
2023/05/12 05:49:00;;;;;;;14.95;5.07;;;;;;;22.31;29.81;101524.25;4990073;27;1079991;-76
2023/05/12 05:51:26;;;;;;;15.65;4.97;;;;;;;22.26;29.93;101530.81;5026372;27;98854;-74
2023/05/12 05:53:52;;;;;;;12.93;4.97;;;;;;;22.26;29.71;101529.94;5019146;27;98434;-74
2023/05/12 05:56:19;;;;;;;15.30;4.22;;;;;;;22.35;29.49;101532.00;5024590;27;96903;-75
2023/05/12 05:58:45;;;;;;;15.57;4.70;;;;;;;22.38;29.32;101526.41;5018254;27;98929;-74
2023/05/12 06:01:14;;;;;;;13.43;4.28;;;;;;;22.34;29.69;101530.25;5018290;27;99310;-75
2023/05/12 06:03:40;;;;;;;23.85;5.10;;;;;;;22.82;29.36;101531.25;5018176;27;98547;-75
2023/05/12 06:06:07;;;;;;;12.85;4.65;;;;;;;22.85;29.17;101530.13;5026600;27;96884;-76
2023/05/12 06:08:33;;;;;;;13.73;4.40;;;;;;;23.07;28.67;101535.66;5026769;27;98914;-75
2023/05/12 06:10:59;;;;;;;11.95;4.15;;;;;;;23.17;28.49;101541.22;5024095;27;98825;-75
2023/05/12 06:13:26;;;;;;;15.27;4.25;;;;;;;23.47;28.19;101540.69;5020699;27;97340;-75
2023/05/12 06:15:52;;;;;;;11.88;4.32;;;;;;;23.38;28.07;101535.03;5024914;27;98641;-76
2023/05/12 06:18:22;;;;;;;10.05;4.38;;;;;;;23.51;27.66;101534.09;5026856;27;101058;-75
2023/05/12 06:20:48;;;;;;;14.80;4.13;;;;;;;23.54;27.59;101536.59;5020448;27;98739;-76
2023/05/12 06:23:14;;;;;;;7.53;4.00;;;;;;;23.49;27.61;101544.19;5030747;27;97028;-74
2023/05/12 06:25:41;;;;;;;12.45;4.03;;;;;;;23.76;27.42;101542.03;5018723;27;97775;-74
2023/05/12 06:28:07;;;;;;;8.88;4.35;;;;;;;23.60;27.68;101544.19;5031487;27;100555;-73
2023/05/12 06:30:34;;;;;;;12.45;4.82;;;;;;;24.00;27.36;101542.81;5012949;27;98174;-74
2023/05/12 06:33:01;;;;;;;17.67;4.57;;;;;;;24.25;27.17;101547.13;5030940;27;96943;-74
2023/05/12 06:35:28;;;;;;;4.95;3.47;;;;;;;24.38;27.17;101547.88;5023915;27;97601;-74
2023/05/12 06:37:55;;;;;;;13.32;4.20;;;;;;;24.04;27.04;101549.66;5021530;27;99294;-74
2023/05/12 06:40:21;;;;;;;20.27;4.38;;;;;;;24.23;26.93;101549.09;5029912;27;103715;-75
2023/05/12 06:42:48;;;;;;;11.25;4.43;;;;;;;24.51;26.90;101554.00;5019731;27;96843;-74
2023/05/12 06:45:15;;;;;;;12.27;4.20;;;;;;;24.59;26.45;101556.06;5027993;27;97038;-74
2023/05/12 06:47:42;;;;;;;11.65;4.57;;;;;;;24.50;26.64;101551.41;5018673;27;98925;-74
2023/05/12 06:50:09;;;;;;;7.50;3.63;;;;;;;24.50;26.47;101552.28;5017446;27;97079;-74
2023/05/12 06:52:37;;;;;;;16.33;4.15;;;;;;;24.63;26.37;101549.44;5016323;27;97277;-73
2023/05/12 06:55:04;;;;;;;8.70;4.22;;;;;;;24.90;26.16;101549.88;5019157;27;98131;-74
2023/05/12 06:57:30;;;;;;;8.98;4.28;;;;;;;24.77;26.73;101548.28;5018296;27;98974;-74
2023/05/12 06:59:57;;;;;;;11.77;3.92;;;;;;;25.00;26.52;101550.00;5021392;27;99510;-74
2023/05/12 07:02:23;;;;;;;10.10;3.97;;;;;;;25.11;26.25;101547.25;5018760;27;98286;-76
2023/05/12 07:04:52;;;;;;;10.55;4.00;;;;;;;25.17;25.89;101551.28;5019375;27;97259;-77
2023/05/12 07:07:19;;;;;;;17.38;4.30;;;;;;;25.46;26.05;101555.09;5017113;27;99420;-76
2023/05/12 07:09:47;;;;;;;8.63;3.97;;;;;;;25.65;25.68;101560.69;5013545;27;99300;-77
2023/05/12 07:12:13;;;;;;;11.68;4.25;;;;;;;26.39;25.09;101555.94;5023554;27;97382;-77
2023/05/12 07:14:40;;;;;;;12.80;4.15;;;;;;;26.98;24.54;101557.00;5029053;27;97065;-77
2023/05/12 07:17:06;;;;;;;10.65;4.50;;;;;;;27.50;23.52;101545.75;5024449;27;99422;-76
2023/05/12 07:19:34;;;;;;;11.20;3.60;;;;;;;27.64;22.86;101560.72;5029439;27;98150;-76
2023/05/12 07:22:00;;;;;;;16.42;3.97;;;;;;;27.44;23.32;101557.13;5016826;27;98293;-77
2023/05/12 07:24:27;;;;;;;16.10;4.00;;;;;;;26.98;23.71;101558.69;5016734;27;97507;-76
2023/05/12 07:26:55;;;;;;;8.32;4.15;;;;;;;27.03;23.87;101561.00;5026927;27;99755;-77
2023/05/12 07:29:22;;;;;;;14.52;4.38;;;;;;;26.75;23.97;101553.63;5027490;27;98956;-77
2023/05/12 07:31:48;;;;;;;9.35;4.10;;;;;;;26.49;24.57;101564.13;5021144;27;97270;-77
2023/05/12 07:34:15;;;;;;;18.15;4.63;;;;;;;26.69;24.13;101556.91;5023077;27;97909;-76
2023/05/12 07:36:41;;;;;;;10.18;4.00;;;;;;;26.86;23.52;101564.34;5024565;27;99517;-76
2023/05/12 07:39:07;;;;;;;10.68;4.15;;;;;;;26.69;23.98;101556.91;5025562;27;99097;-77
2023/05/12 07:41:34;;;;;;;10.20;3.40;;;;;;;26.63;24.07;101560.19;5011586;27;97491;-76
2023/05/12 07:44:02;;;;;;;10.27;3.83;;;;;;;26.51;23.96;101554.03;5026402;27;98045;-77
2023/05/12 07:46:28;;;;;;;11.23;3.38;;;;;;;26.47;23.98;101556.13;5025518;27;97921;-76
2023/05/12 07:48:55;;;;;;;10.07;3.88;;;;;;;26.52;23.92;101553.00;5021414;27;101317;-76
2023/05/12 07:51:21;;;;;;;8.63;4.07;;;;;;;26.73;24.08;101555.63;5024346;27;97590;-76
2023/05/12 07:53:48;;;;;;;9.88;3.70;;;;;;;26.22;24.12;101559.28;5011574;27;97446;-76
2023/05/12 07:56:15;;;;;;;8.43;3.70;;;;;;;26.56;23.84;101560.75;5019386;27;101111;-77
2023/05/12 07:58:41;;;;;;;7.50;3.90;;;;;;;26.64;24.14;101556.47;5025145;27;99164;-76
2023/05/12 08:01:09;;;;;;;8.85;3.45;;;;;;;27.00;23.56;101553.13;5025811;27;96798;-77
2023/05/12 08:03:35;;;;;;;11.52;2.97;;;;;;;26.96;22.87;101557.16;5012141;27;97349;-76
2023/05/12 08:06:04;;;;;;;9.73;3.15;;;;;;;27.17;22.95;101555.19;5013700;27;102284;-77
2023/05/12 08:08:31;;;;;;;10.70;3.10;;;;;;;27.01;22.58;101568.44;5017716;27;99233;-77
2023/05/12 08:10:57;;;;;;;13.02;3.60;;;;;;;26.91;22.50;101554.00;5017306;27;98443;-78
2023/05/12 08:13:25;;;;;;;10.98;3.15;;;;;;;26.65;22.60;101561.75;5017667;27;96968;-77
2023/05/12 08:15:51;;;;;;;9.68;3.17;;;;;;;26.59;22.52;101560.44;5020447;28;99354;-77
2023/05/12 08:18:19;;;;;;;6.30;2.95;;;;;;;26.76;22.55;101560.78;5017211;27;99109;-77
2023/05/12 08:20:46;;;;;;;12.52;3.40;;;;;;;26.57;22.61;101567.03;5017739;27;99717;-77
2023/05/12 08:23:12;;;;;;;9.82;3.42;;;;;;;26.59;21.95;101557.72;5027995;27;97839;-77
2023/05/12 08:25:40;;;;;;;10.70;3.20;;;;;;;26.90;21.72;101557.72;5022258;27;100022;-77
2023/05/12 08:28:06;;;;;;;10.65;3.20;;;;;;;26.54;21.98;101554.59;5023664;27;100464;-77
2023/05/12 08:30:32;;;;;;;4.45;2.83;;;;;;;26.89;21.45;101556.00;5013872;27;98861;-75
2023/05/12 08:32:59;;;;;;;4.57;2.15;;;;;;;26.93;21.26;101552.84;5016212;27;96834;-77
2023/05/12 08:35:27;;;;;;;13.05;2.90;;;;;;;27.20;21.55;101549.44;5019748;27;101850;-77
2023/05/12 08:37:54;;;;;;;9.93;2.92;;;;;;;26.89;21.55;101556.00;5019376;27;98868;-78
2023/05/12 08:40:21;;;;;;;9.27;2.55;;;;;;;27.00;21.53;101553.13;5019416;27;96873;-77
2023/05/12 08:42:54;;;;;;;6.97;2.35;;;;;;;27.24;21.28;101556.28;5021766;27;97166;-77
2023/05/12 08:45:21;;;;;;;6.95;2.70;;;;;;;27.23;21.33;101557.31;5026441;27;101769;-77
2023/05/12 08:47:49;;;;;;;6.30;2.40;;;;;;;27.05;20.57;101553.56;5024132;27;98688;-76
2023/05/12 08:50:17;;;;;;;9.77;2.70;;;;;;;27.35;20.77;101553.47;5027551;27;96963;-75
2023/05/12 08:52:45;;;;;;;8.50;3.03;;;;;;;27.21;20.68;101564.72;5026850;27;97971;-77
2023/05/12 08:55:13;;;;;;;8.30;2.63;;;;;;;27.15;20.37;101557.16;5030726;27;99105;-77
2023/05/12 08:57:44;;;;;;;6.22;2.60;;;;;;;26.91;19.86;101557.53;5023145;27;98767;-76
2023/05/12 09:00:12;;;;;;;10.93;2.45;;;;;;;26.93;20.36;101560.13;5018883;27;97731;-77
2023/05/12 09:02:39;;;;;;;9.48;2.65;;;;;;;26.70;19.93;101553.22;5022674;27;97064;-76
2023/05/12 09:05:06;;;;;;;10.52;2.50;;;;;;;26.76;20.02;101549.94;5027051;27;98740;-76
2023/05/12 09:07:33;;;;;;;10.52;2.53;;;;;;;27.01;19.86;101554.88;5025633;27;98832;-76
2023/05/12 09:10:03;;;;;;;5.53;2.20;;;;;;;26.83;19.50;101551.09;5029142;27;96871;-77
2023/05/12 09:12:34;;;;;;;7.65;2.38;;;;;;;26.42;20.26;101560.25;5023858;27;97107;-76
2023/05/12 09:15:06;;;;;;;4.07;2.47;;;;;;;26.55;19.73;101553.59;5026139;27;98983;-79
2023/05/12 09:17:33;;;;;;;7.05;2.60;;;;;;;26.62;20.06;101550.31;5023527;27;98990;-77
2023/05/12 09:20:00;;;;;;;6.40;2.45;;;;;;;26.45;20.36;101549.16;5022018;27;96799;-77
2023/05/12 09:22:30;;;;;;;6.95;2.85;;;;;;;26.51;19.78;101549.47;5020703;27;97327;-77
2023/05/12 09:24:56;;;;;;;7.45;2.20;;;;;;;25.94;19.04;101539.19;5021113;27;99014;-77
2023/05/12 09:27:28;;;;;;;7.07;2.05;;;;;;;25.72;19.86;101550.19;5021144;27;99160;-77
2023/05/12 09:29:54;;;;;;;9.43;3.85;;;;;;;25.86;20.04;101554.41;5025493;27;96830;-77
2023/05/12 09:32:31;;;;;;;10.32;2.88;;;;;;;26.00;20.08;101529.66;5025653;27;96973;-77
2023/05/12 09:35:02;;;;;;;7.78;2.55;;;;;;;26.22;20.41;101545.72;5017322;27;98172;-77
2023/05/12 09:37:33;;;;;;;9.32;2.15;;;;;;;26.57;19.47;101543.47;5019379;27;98682;-77
2023/05/12 09:40:00;;;;;;;4.32;2.30;;;;;;;26.68;19.83;101542.50;5027840;27;96730;-77
2023/05/12 09:42:29;;;;;;;10.05;2.72;;;;;;;26.65;19.19;101541.94;5026201;27;96827;-77
2023/05/12 09:44:59;;;;;;;6.80;2.25;;;;;;;26.83;19.00;101535.69;5027315;27;97760;-77
2023/05/12 09:47:27;;;;;;;11.15;2.50;;;;;;;26.65;19.06;101544.66;5027201;27;98934;-78
2023/05/12 09:49:56;;;;;;;5.93;1.92;;;;;;;26.65;18.95;101542.75;5023609;27;96816;-77
2023/05/12 09:52:22;;;;;;;5.60;2.03;;;;;;;26.50;18.83;101542.31;5028648;27;97407;-76
2023/05/12 09:54:51;;;;;;;3.47;2.28;;;;;;;26.64;19.00;101540.22;5026075;27;99500;-77
2023/05/12 09:57:21;;;;;;;9.52;2.42;;;;;;;26.72;18.90;101538.50;5033595;27;99095;-76
2023/05/12 09:59:50;;;;;;;6.63;2.05;;;;;;;26.88;18.82;101541.53;5025115;27;97112;-77
2023/05/12 10:02:18;;;;;;;4.30;2.17;;;;;;;26.98;18.66;101536.16;5028558;27;99121;-78
2023/05/12 10:04:49;;;;;;;5.20;2.05;;;;;;;26.89;18.71;101531.59;5029883;27;100734;-76
2023/05/12 10:07:17;;;;;;;7.82;2.22;;;;;;;26.66;18.78;101549.91;5025569;27;97771;-78
2023/05/12 10:09:45;;;;;;;13.30;2.45;;;;;;;26.35;18.92;101540.13;5022730;27;97345;-78
2023/05/12 10:12:12;;;;;;;4.93;1.90;;;;;;;26.32;18.90;101540.41;5023581;27;98365;-77
2023/05/12 10:14:38;;;;;;;6.50;2.17;;;;;;;26.44;19.52;101537.44;5022727;27;99530;-78
2023/05/12 10:17:07;;;;;;;38.38;3.90;;;;;;;26.57;19.31;101532.63;5023403;27;98828;-77
2023/05/12 10:19:35;;;;;;;6.50;2.15;;;;;;;26.35;19.50;101535.56;5025981;27;96795;-78
2023/05/12 10:22:02;;;;;;;12.48;2.03;;;;;;;26.41;19.43;101529.59;5021575;27;96863;-77
2023/05/12 10:24:29;;;;;;;6.53;2.22;;;;;;;26.55;19.49;101536.47;5027943;27;98098;-77
2023/05/12 10:26:56;;;;;;;7.93;2.67;;;;;;;26.49;19.63;101535.19;5026965;27;98998;-78
2023/05/12 10:29:28;;;;;;;6.65;2.28;;;;;;;26.47;19.72;101526.31;5022309;27;96896;-77
2023/05/12 10:31:55;;;;;;;6.03;2.40;;;;;;;26.50;19.68;101526.06;5024932;27;97355;-76
2023/05/12 10:34:22;;;;;;;4.72;2.63;;;;;;;26.51;19.87;101529.63;5019739;27;101199;-77
2023/05/12 10:36:52;;;;;;;11.07;2.08;;;;;;;26.68;19.86;101525.38;5024350;27;99210;-77
2023/05/12 10:39:19;;;;;;;6.70;2.47;;;;;;;26.74;19.50;101513.97;5015922;27;97006;-77
2023/05/12 10:41:46;;;;;;;14.60;2.97;;;;;;;26.96;19.59;101525.47;5026558;27;97388;-77
2023/05/12 10:44:12;;;;;;;6.07;2.00;;;;;;;26.97;19.66;101515.47;5023283;27;99296;-78
2023/05/12 10:46:39;;;;;;;6.90;2.05;;;;;;;26.89;19.56;101518.03;5025657;27;100741;-77
2023/05/12 10:49:08;;;;;;;4.90;2.10;;;;;;;27.14;19.43;101528.31;5018027;27;97231;-76
2023/05/12 10:51:49;;;;;;;7.75;2.40;;;;;;;26.85;19.70;101530.09;5027847;27;96732;-76
2023/05/12 10:54:20;;;;;;;15.00;3.33;;;;;;;26.55;19.87;101523.78;5027826;27;100103;-78
2023/05/12 10:56:47;;;;;;;7.07;2.20;;;;;;;26.53;20.10;101516.78;5025873;27;99222;-77
2023/05/12 10:59:16;;;;;;;5.97;2.10;;;;;;;26.46;20.10;101516.47;5026871;27;96807;-77
2023/05/12 11:01:55;;;;;;;4.43;2.25;;;;;;;26.40;20.29;101525.16;5027231;27;96949;-77
2023/05/12 11:04:23;;;;;;;4.90;2.22;;;;;;;26.57;20.25;101508.25;5023396;27;101866;-77
2023/05/12 11:06:58;;;;;;;7.07;2.55;;;;;;;26.68;20.17;101509.09;5027619;27;99262;-78
2023/05/12 11:09:25;;;;;;;8.60;1.85;;;;;;;26.73;20.24;101513.09;5031169;27;96818;-77
2023/05/12 11:11:56;;;;;;;3.90;2.42;;;;;;;26.64;20.25;101503.13;5023395;27;97039;-79
2023/05/12 11:14:27;;;;;;;3.58;2.15;;;;;;;26.56;20.45;101508.38;5026699;27;97161;-81
2023/05/12 11:16:54;;;;;;;5.28;2.20;;;;;;;26.72;20.44;101513.25;5030200;27;96777;-79
2023/05/12 11:19:21;;;;;;;13.60;2.88;;;;;;;26.89;20.06;101508.03;5025302;27;98593;-79
2023/05/12 11:21:48;;;;;;;5.10;2.30;;;;;;;26.85;20.05;101500.28;5026449;27;97586;-78